METAR LSZC 182050Z AUTO VRB02KT 9999 -RA FEW065 BKN080 12/11 Q1015
TAF LSZC 171905Z 1719/1724 CNL
TAF LSMA 181625Z 1817/1923 05005KT 9999 FEW065 SCT130 PROB40 TEMPO 1817/1823 27010KT SHRA SCT050TCU PROB30 TEMPO 1817/1818 20018G30KT 4500 TSRA SCT040CB PROB30 1905/1909 CAVOK PROB30 TEMPO 1914/1918 SHRA FEW070TCU

Privacy Settings
We use cookies to enhance your experience while using our website. If you are using our Services via a browser you can restrict, block or remove cookies through your web browser settings. We also use content and scripts from third parties that may use tracking technologies. You can selectively provide your consent below to allow such third party embeds. For complete information about the cookies we use, data we collect and how we process them, please check our Privacy Policy
Youtube
Consent to display content from - Youtube
Vimeo
Consent to display content from - Vimeo
Google Maps
Consent to display content from - Google